NEXUS17 ENBO-ENBN
Flight info
| Callsign | NEXUS17 |
|---|---|
| Flight time | N/A |
| Altitude | 4000 |
| Route | PISUX DCT STO DCT PEPIB |
| Aircraft | H145/L-SDFGRY/C |
Departure
| Time | 2026-05-08 22:05 |
|---|---|
| Airport | Bodø Airport (ENBO) |
Arrival
| Time | N/A |
|---|---|
| Airport | Brønnøysund Airport, Brønnøy (ENBN) |
| Time | Latitude | Longitude | Altitude | Speed | Heading |
|---|---|---|---|---|---|
| 2026-05-08 21:52 | 67.27200 | 14.36096 | 36 ft | 0 kts | 356° |
| 2026-05-08 22:02 | 67.27200 | 14.36091 | 36 ft | 0 kts | 150° |
| 2026-05-08 22:02 | 67.27200 | 14.36092 | 36 ft | 0 kts | 170° |
| 2026-05-08 22:03 | 67.27199 | 14.36094 | 37 ft | 0 kts | 197° |
| 2026-05-08 22:04 | 67.27177 | 14.36096 | 44 ft | 6 kts | 204° |
| 2026-05-08 22:04 | 67.27112 | 14.36096 | 48 ft | 12 kts | 167° |
| 2026-05-08 22:04 | 67.27031 | 14.36144 | 41 ft | 8 kts | 167° |
| 2026-05-08 22:04 | 67.26962 | 14.36181 | 45 ft | 11 kts | 166° |
| 2026-05-08 22:05 | 67.26917 | 14.36277 | 51 ft | 6 kts | 228° |
| 2026-05-08 22:05 | 67.26905 | 14.35980 | 133 ft | 35 kts | 245° |
| 2026-05-08 22:05 | 67.26869 | 14.35300 | 427 ft | 50 kts | 245° |
| 2026-05-08 22:05 | 67.26689 | 14.34108 | 835 ft | 88 kts | 229° |
| 2026-05-08 22:06 | 67.26152 | 14.33180 | 1178 ft | 100 kts | 191° |
| 2026-05-08 22:06 | 67.25432 | 14.32799 | 1426 ft | 111 kts | 184° |
| 2026-05-08 22:06 | 67.24645 | 14.32452 | 1655 ft | 119 kts | 187° |
| 2026-05-08 22:06 | 67.23819 | 14.32060 | 2028 ft | 125 kts | 188° |
| 2026-05-08 22:07 | 67.22957 | 14.31643 | 2325 ft | 125 kts | 188° |
| 2026-05-08 22:07 | 67.22119 | 14.31248 | 2529 ft | 120 kts | 189° |
| 2026-05-08 22:07 | 67.21323 | 14.30888 | 2680 ft | 82 kts | 111° |
| 2026-05-08 22:07 | 67.21317 | 14.30873 | 1686 ft | 23 kts | 258° |
| 2026-05-08 22:08 | 67.21462 | 14.30939 | 1472 ft | 72 kts | 105° |
| 2026-05-08 22:08 | 67.21525 | 14.31073 | 870 ft | 37 kts | 61° |
| 2026-05-08 22:08 | 67.21613 | 14.31594 | 1168 ft | 51 kts | 205° |
| 2026-05-08 22:08 | 67.21554 | 14.31250 | 430 ft | 72 kts | 252° |
| 2026-05-08 22:09 | 67.21556 | 14.30823 | 95 ft | 18 kts | 228° |
| 2026-05-08 22:09 | 67.21503 | 14.30965 | 307 ft | 49 kts | 127° |
| 2026-05-08 22:09 | 67.21533 | 14.30759 | 164 ft | 36 kts | 130° |
| 2026-05-08 22:09 | 67.21623 | 14.30391 | 534 ft | 60 kts | 358° |
| 2026-05-08 22:10 | 67.21751 | 14.30077 | 293 ft | 16 kts | 78° |
| 2026-05-08 22:10 | 67.21825 | 14.30150 | 16 ft | 30 kts | 119° |
| 2026-05-08 22:10 | 67.21820 | 14.30020 | 124 ft | 40 kts | 247° |
| 2026-05-08 22:10 | 67.21782 | 14.29931 | 137 ft | 27 kts | 99° |
| 2026-05-08 22:11 | 67.21893 | 14.29817 | 119 ft | 41 kts | 43° |
| 2026-05-08 22:11 | 67.21856 | 14.29448 | 321 ft | 26 kts | 309° |
| 2026-05-08 22:11 | 67.21905 | 14.29133 | 51 ft | 6 kts | 75° |
| 2026-05-08 22:11 | 67.22003 | 14.28859 | 8 ft | 29 kts | 324° |
| 2026-05-08 22:12 | 67.22019 | 14.28483 | 248 ft | 62 kts | 79° |
| 2026-05-08 22:12 | 67.22033 | 14.28006 | 4 ft | 0 kts | 158° |